Карточка аэропорта UAAA

Внимание!
Информация на этой странице в стадии наполнения.
Если вы не увидели какой-то информации, или заметили неточность - пожалуйста сообщите нам!
Спасибо!
Команда RU-STAFF
Название аэропортаАлматы
Название аэропорта (англ.)Almaty
Превышение2238 ft. (682.1 m.)
Координаты43°21.072', 77°1.5960000000001'
Высота перехода10000ft
Эшелон переходаFL120, QNH<733:FL130
Коды ответчика3501-3517, 3401-3427
Зона ОрВДАлматы РПИ (UAAA)
Данные METARUAAA 271100Z 20002MPS 5000 BR SCT100 01/M04 Q1024 NOSIG
Проноз погоды (TAF)UAAA 270503Z 2706/2806 02003MPS 1200 BR OVC011 BKN030 TX01/2709Z TNM08/2801Z TEMPO 2706/2708 VRB02MPS 0600 FZFG OVC004 BKN011 BECMG 2708/2709 17003MPS 3100 BR FU TEMPO 2708/2712 07003MPS 1500 FEW005 BKN011 TEMPO 2712/2724 22003MPS 0800 FZFG BKN004 SCT011 BECMG 2805/2806 04003MPS SCT011 BKN050
NOTAMshow/hide NOTAM
AWOS   TABLE

Информация о ВПП

ВПП Длина ВПП (м.) Покрытие Курс ВПП Частота ILS
05L4500Бетон51109.1
23R4500Бетон231111.3
05R4400Асфальтобетон51110.3
23L4400Асфальтобетон231108.1

Диспетчерские позиции

Позывной Наименование органа УВД Частота
UAAA_APPАлматы-Подход124.8
UAAA_TWRАлматы-Вышка119.4
UAAA_GNDАлматы-Руление121.7
UAAA_R_APPАлматы-Круг120.8



Спутниковое изображение